sensor_id;sensor_type;location;lat;lon;timestamp;P1;P2;P0
78512;PMS5003;67809;55.034;73.462;2024-02-21T00:02:08;43.50;31.25;21.00
78512;PMS5003;67809;55.034;73.462;2024-02-21T00:04:34;44.00;32.00;19.00
78512;PMS5003;67809;55.034;73.462;2024-02-21T00:07:02;38.75;28.75;18.00
78512;PMS5003;67809;55.034;73.462;2024-02-21T00:09:28;36.50;26.75;17.50
78512;PMS5003;67809;55.034;73.462;2024-02-21T00:11:54;37.00;29.00;17.25
78512;PMS5003;67809;55.034;73.462;2024-02-21T00:14:21;37.50;27.25;17.50
78512;PMS5003;67809;55.034;73.462;2024-02-21T00:16:47;38.50;28.50;17.75
78512;PMS5003;67809;55.034;73.462;2024-02-21T00:19:13;37.00;27.75;17.00
78512;PMS5003;67809;55.034;73.462;2024-02-21T00:21:40;42.00;30.25;18.75
78512;PMS5003;67809;55.034;73.462;2024-02-21T00:24:07;36.00;26.75;16.00
78512;PMS5003;67809;55.034;73.462;2024-02-21T00:26:33;43.00;31.25;20.50
78512;PMS5003;67809;55.034;73.462;2024-02-21T00:28:59;39.50;29.50;18.25
78512;PMS5003;67809;55.034;73.462;2024-02-21T00:31:25;37.67;29.67;18.67
78512;PMS5003;67809;55.034;73.462;2024-02-21T00:33:52;38.75;29.75;18.00
78512;PMS5003;67809;55.034;73.462;2024-02-21T00:36:18;42.00;32.50;19.50
78512;PMS5003;67809;55.034;73.462;2024-02-21T00:38:44;42.25;30.25;18.50
78512;PMS5003;67809;55.034;73.462;2024-02-21T00:41:10;37.75;29.00;18.25
78512;PMS5003;67809;55.034;73.462;2024-02-21T00:43:37;39.00;29.25;17.75
78512;PMS5003;67809;55.034;73.462;2024-02-21T00:46:05;40.00;30.00;18.00
78512;PMS5003;67809;55.034;73.462;2024-02-21T00:48:31;36.50;27.75;17.00
78512;PMS5003;67809;55.034;73.462;2024-02-21T00:50:57;42.33;32.33;20.00
78512;PMS5003;67809;55.034;73.462;2024-02-21T00:53:24;40.00;28.00;17.50
78512;PMS5003;67809;55.034;73.462;2024-02-21T00:55:50;40.75;29.50;18.00
78512;PMS5003;67809;55.034;73.462;2024-02-21T00:58:16;41.00;32.00;19.00
78512;PMS5003;67809;55.034;73.462;2024-02-21T01:00:42;40.00;29.00;18.00
78512;PMS5003;67809;55.034;73.462;2024-02-21T01:03:08;41.00;31.00;19.50
78512;PMS5003;67809;55.034;73.462;2024-02-21T01:05:35;42.00;33.00;21.50
78512;PMS5003;67809;55.034;73.462;2024-02-21T01:08:01;39.25;30.50;18.50
78512;PMS5003;67809;55.034;73.462;2024-02-21T01:10:27;41.00;31.00;19.67
78512;PMS5003;67809;55.034;73.462;2024-02-21T01:12:53;45.00;33.75;21.00
78512;PMS5003;67809;55.034;73.462;2024-02-21T01:15:19;43.25;32.75;20.25
78512;PMS5003;67809;55.034;73.462;2024-02-21T01:17:46;42.50;31.75;18.00
78512;PMS5003;67809;55.034;73.462;2024-02-21T01:20:12;41.00;31.00;19.00
78512;PMS5003;67809;55.034;73.462;2024-02-21T01:22:38;45.50;31.50;19.75
78512;PMS5003;67809;55.034;73.462;2024-02-21T01:25:04;39.75;29.00;17.75
78512;PMS5003;67809;55.034;73.462;2024-02-21T01:27:31;39.50;29.50;17.50
78512;PMS5003;67809;55.034;73.462;2024-02-21T01:30:02;39.20;30.20;18.60
78512;PMS5003;67809;55.034;73.462;2024-02-21T01:32:29;41.00;31.00;20.00
78512;PMS5003;67809;55.034;73.462;2024-02-21T01:34:55;43.50;32.00;20.00
78512;PMS5003;67809;55.034;73.462;2024-02-21T01:37:21;33.00;25.50;15.50
78512;PMS5003;67809;55.034;73.462;2024-02-21T01:39:47;37.25;30.00;18.75
78512;PMS5003;67809;55.034;73.462;2024-02-21T01:42:15;36.00;27.00;17.33
78512;PMS5003;67809;55.034;73.462;2024-02-21T01:44:41;36.25;27.25;17.25
78512;PMS5003;67809;55.034;73.462;2024-02-21T01:47:08;36.00;27.75;17.00
78512;PMS5003;67809;55.034;73.462;2024-02-21T01:49:34;41.50;29.75;16.50
78512;PMS5003;67809;55.034;73.462;2024-02-21T01:52:00;42.00;31.67;18.00
78512;PMS5003;67809;55.034;73.462;2024-02-21T01:54:27;44.50;33.25;19.00
78512;PMS5003;67809;55.034;73.462;2024-02-21T01:56:54;43.00;32.75;20.00
78512;PMS5003;67809;55.034;73.462;2024-02-21T01:59:21;40.25;29.50;18.00
78512;PMS5003;67809;55.034;73.462;2024-02-21T02:01:48;39.00;31.00;18.67
78512;PMS5003;67809;55.034;73.462;2024-02-21T02:04:14;47.50;33.00;19.50
78512;PMS5003;67809;55.034;73.462;2024-02-21T02:06:40;50.25;35.75;21.75
78512;PMS5003;67809;55.034;73.462;2024-02-21T02:09:07;40.50;31.00;21.00
78512;PMS5003;67809;55.034;73.462;2024-02-21T02:11:33;49.33;35.33;21.00
78512;PMS5003;67809;55.034;73.462;2024-02-21T02:14:00;40.50;32.00;20.75
78512;PMS5003;67809;55.034;73.462;2024-02-21T02:16:26;44.75;32.00;20.75
78512;PMS5003;67809;55.034;73.462;2024-02-21T02:18:52;45.50;34.00;20.00
78512;PMS5003;67809;55.034;73.462;2024-02-21T02:21:29;36.33;28.33;18.00
78512;PMS5003;67809;55.034;73.462;2024-02-21T02:23:55;42.75;32.00;20.25
78512;PMS5003;67809;55.034;73.462;2024-02-21T02:26:21;41.50;32.00;19.75
78512;PMS5003;67809;55.034;73.462;2024-02-21T02:29:03;45.00;32.25;19.00
78512;PMS5003;67809;55.034;73.462;2024-02-21T02:31:29;42.00;31.75;19.00
78512;PMS5003;67809;55.034;73.462;2024-02-21T02:33:55;48.00;35.50;21.00
78512;PMS5003;67809;55.034;73.462;2024-02-21T02:39:44;44.00;32.25;18.75
78512;PMS5003;67809;55.034;73.462;2024-02-21T02:42:10;45.67;34.00;20.67
78512;PMS5003;67809;55.034;73.462;2024-02-21T02:44:37;40.50;30.50;19.50
78512;PMS5003;67809;55.034;73.462;2024-02-21T02:47:03;42.75;33.50;21.25
78512;PMS5003;67809;55.034;73.462;2024-02-21T02:49:29;42.50;31.50;19.50
78512;PMS5003;67809;55.034;73.462;2024-02-21T02:51:55;46.00;34.67;21.00
78512;PMS5003;67809;55.034;73.462;2024-02-21T02:54:22;51.50;38.25;22.50
78512;PMS5003;67809;55.034;73.462;2024-02-21T02:56:49;54.75;39.25;24.25
78512;PMS5003;67809;55.034;73.462;2024-02-21T02:59:15;51.00;35.50;21.25
78512;PMS5003;67809;55.034;73.462;2024-02-21T03:01:42;52.33;39.00;23.33
78512;PMS5003;67809;55.034;73.462;2024-02-21T03:04:08;52.50;39.25;23.00
78512;PMS5003;67809;55.034;73.462;2024-02-21T03:06:35;52.00;38.00;22.25
78512;PMS5003;67809;55.034;73.462;2024-02-21T03:09:01;54.00;38.75;22.00
78512;PMS5003;67809;55.034;73.462;2024-02-21T03:11:27;52.00;38.67;25.00
78512;PMS5003;67809;55.034;73.462;2024-02-21T03:13:55;53.50;39.00;24.00
78512;PMS5003;67809;55.034;73.462;2024-02-21T03:16:22;55.50;39.50;23.75
78512;PMS5003;67809;55.034;73.462;2024-02-21T03:18:48;50.75;36.75;22.50
78512;PMS5003;67809;55.034;73.462;2024-02-21T03:21:15;54.00;39.50;24.00
78512;PMS5003;67809;55.034;73.462;2024-02-21T03:23:41;55.50;38.75;22.00
78512;PMS5003;67809;55.034;73.462;2024-02-21T03:26:07;61.00;43.00;27.00
78512;PMS5003;67809;55.034;73.462;2024-02-21T03:28:34;56.25;39.25;23.50
78512;PMS5003;67809;55.034;73.462;2024-02-21T03:31:00;50.50;38.00;21.75
78512;PMS5003;67809;55.034;73.462;2024-02-21T03:33:26;52.00;39.00;23.67
78512;PMS5003;67809;55.034;73.462;2024-02-21T03:35:52;53.50;39.50;22.00
78512;PMS5003;67809;55.034;73.462;2024-02-21T03:38:19;45.50;34.75;21.25
78512;PMS5003;67809;55.034;73.462;2024-02-21T03:40:45;49.75;35.50;21.50
78512;PMS5003;67809;55.034;73.462;2024-02-21T03:43:11;52.33;37.33;20.00
78512;PMS5003;67809;55.034;73.462;2024-02-21T03:45:37;50.00;36.00;20.75
78512;PMS5003;67809;55.034;73.462;2024-02-21T03:48:04;55.00;37.75;21.75
78512;PMS5003;67809;55.034;73.462;2024-02-21T03:50:31;47.00;34.50;18.50
78512;PMS5003;67809;55.034;73.462;2024-02-21T03:52:57;46.67;34.00;20.00
78512;PMS5003;67809;55.034;73.462;2024-02-21T03:55:24;46.75;33.75;20.00
78512;PMS5003;67809;55.034;73.462;2024-02-21T03:57:50;45.25;34.00;21.25
78512;PMS5003;67809;55.034;73.462;2024-02-21T04:00:16;50.25;37.00;22.50
78512;PMS5003;67809;55.034;73.462;2024-02-21T04:02:43;49.67;37.00;22.00
78512;PMS5003;67809;55.034;73.462;2024-02-21T04:05:09;52.25;38.50;23.50
78512;PMS5003;67809;55.034;73.462;2024-02-21T04:07:38;57.00;42.25;25.00
78512;PMS5003;67809;55.034;73.462;2024-02-21T04:10:05;58.50;41.25;24.75
78512;PMS5003;67809;55.034;73.462;2024-02-21T04:12:31;148.00;117.00;69.25
78512;PMS5003;67809;55.034;73.462;2024-02-21T04:14:57;69.50;52.00;31.75
78512;PMS5003;67809;55.034;73.462;2024-02-21T04:17:24;66.75;47.00;29.00
78512;PMS5003;67809;55.034;73.462;2024-02-21T04:19:50;74.50;52.25;32.25
78512;PMS5003;67809;55.034;73.462;2024-02-21T04:22:16;73.00;53.00;31.00
78512;PMS5003;67809;55.034;73.462;2024-02-21T04:24:42;73.75;53.00;31.50
78512;PMS5003;67809;55.034;73.462;2024-02-21T04:27:08;65.25;48.00;29.25
78512;PMS5003;67809;55.034;73.462;2024-02-21T04:29:35;59.25;44.25;27.50
78512;PMS5003;67809;55.034;73.462;2024-02-21T04:32:01;69.00;47.67;28.33
78512;PMS5003;67809;55.034;73.462;2024-02-21T04:34:28;60.50;42.25;26.00
78512;PMS5003;67809;55.034;73.462;2024-02-21T04:36:55;53.75;40.50;25.00
78512;PMS5003;67809;55.034;73.462;2024-02-21T04:39:21;62.50;44.00;27.50
78512;PMS5003;67809;55.034;73.462;2024-02-21T04:41:47;64.50;45.50;26.75
78512;PMS5003;67809;55.034;73.462;2024-02-21T04:44:14;62.33;46.33;27.00
78512;PMS5003;67809;55.034;73.462;2024-02-21T04:46:41;62.50;46.00;28.00
78512;PMS5003;67809;55.034;73.462;2024-02-21T04:49:08;67.25;49.00;30.25
78512;PMS5003;67809;55.034;73.462;2024-02-21T04:51:34;63.50;46.75;28.00
78512;PMS5003;67809;55.034;73.462;2024-02-21T04:54:00;69.33;49.33;29.33
78512;PMS5003;67809;55.034;73.462;2024-02-21T04:56:26;58.50;43.25;27.00
78512;PMS5003;67809;55.034;73.462;2024-02-21T04:58:53;61.50;45.00;26.50
78512;PMS5003;67809;55.034;73.462;2024-02-21T05:01:19;62.00;44.00;27.50
78512;PMS5003;67809;55.034;73.462;2024-02-21T05:03:45;56.33;40.00;24.67
78512;PMS5003;67809;55.034;73.462;2024-02-21T05:06:11;55.75;40.75;23.75
78512;PMS5003;67809;55.034;73.462;2024-02-21T05:08:37;56.00;41.00;24.00
78512;PMS5003;67809;55.034;73.462;2024-02-21T05:11:04;53.00;39.00;25.00
78512;PMS5003;67809;55.034;73.462;2024-02-21T05:13:30;52.00;37.67;23.00
78512;PMS5003;67809;55.034;73.462;2024-02-21T05:15:56;52.00;37.50;24.00
78512;PMS5003;67809;55.034;73.462;2024-02-21T05:18:22;49.50;37.75;22.00
78512;PMS5003;67809;55.034;73.462;2024-02-21T05:20:48;54.75;39.00;22.50
78512;PMS5003;67809;55.034;73.462;2024-02-21T05:23:15;53.00;40.00;21.50
78512;PMS5003;67809;55.034;73.462;2024-02-21T05:25:41;51.00;38.00;22.75
78512;PMS5003;67809;55.034;73.462;2024-02-21T05:28:07;52.00;37.75;23.00
78512;PMS5003;67809;55.034;73.462;2024-02-21T05:30:33;52.00;37.00;23.50
78512;PMS5003;67809;55.034;73.462;2024-02-21T05:33:03;52.33;38.33;23.33
78512;PMS5003;67809;55.034;73.462;2024-02-21T05:35:30;53.25;38.50;23.75
78512;PMS5003;67809;55.034;73.462;2024-02-21T05:37:56;54.50;40.00;23.75
78512;PMS5003;67809;55.034;73.462;2024-02-21T05:40:23;50.25;37.00;22.00
78512;PMS5003;67809;55.034;73.462;2024-02-21T05:42:49;57.00;38.67;24.33
78512;PMS5003;67809;55.034;73.462;2024-02-21T05:45:18;52.00;38.00;21.00
78512;PMS5003;67809;55.034;73.462;2024-02-21T05:47:44;48.00;35.75;21.25
78512;PMS5003;67809;55.034;73.462;2024-02-21T05:50:10;48.50;34.75;22.00
78512;PMS5003;67809;55.034;73.462;2024-02-21T05:52:37;46.33;32.67;20.33
78512;PMS5003;67809;55.034;73.462;2024-02-21T05:55:03;54.25;38.75;23.25
78512;PMS5003;67809;55.034;73.462;2024-02-21T05:57:29;53.50;39.25;23.75
78512;PMS5003;67809;55.034;73.462;2024-02-21T05:59:55;46.00;34.25;21.50
78512;PMS5003;67809;55.034;73.462;2024-02-21T06:02:21;59.00;41.50;26.75
78512;PMS5003;67809;55.034;73.462;2024-02-21T06:04:48;57.67;41.33;25.67
78512;PMS5003;67809;55.034;73.462;2024-02-21T06:07:14;60.50;43.00;26.00
78512;PMS5003;67809;55.034;73.462;2024-02-21T06:09:41;62.00;45.50;27.25
78512;PMS5003;67809;55.034;73.462;2024-02-21T06:12:07;63.25;45.75;27.50
78512;PMS5003;67809;55.034;73.462;2024-02-21T06:14:33;65.00;43.33;27.00
78512;PMS5003;67809;55.034;73.462;2024-02-21T06:17:00;55.75;42.00;25.00
78512;PMS5003;67809;55.034;73.462;2024-02-21T06:19:26;56.25;42.00;25.75
78512;PMS5003;67809;55.034;73.462;2024-02-21T06:21:52;61.75;44.50;26.50
78512;PMS5003;67809;55.034;73.462;2024-02-21T06:24:18;56.00;42.00;25.00
78512;PMS5003;67809;55.034;73.462;2024-02-21T06:26:44;56.00;40.00;24.75
78512;PMS5003;67809;55.034;73.462;2024-02-21T06:29:11;56.00;42.00;24.50
78512;PMS5003;67809;55.034;73.462;2024-02-21T06:31:39;51.75;39.00;24.25
78512;PMS5003;67809;55.034;73.462;2024-02-21T06:34:06;44.67;34.33;21.00
78512;PMS5003;67809;55.034;73.462;2024-02-21T06:36:32;54.75;38.25;24.50
78512;PMS5003;67809;55.034;73.462;2024-02-21T06:38:58;51.50;39.00;23.50
78512;PMS5003;67809;55.034;73.462;2024-02-21T06:41:25;52.50;38.50;23.75
78512;PMS5003;67809;55.034;73.462;2024-02-21T06:43:51;62.50;45.75;28.00
78512;PMS5003;67809;55.034;73.462;2024-02-21T06:46:26;66.50;48.00;29.75
78512;PMS5003;67809;55.034;73.462;2024-02-21T06:48:54;61.00;44.50;27.25
78512;PMS5003;67809;55.034;73.462;2024-02-21T06:51:22;46.50;34.50;21.75
78512;PMS5003;67809;55.034;73.462;2024-02-21T06:53:48;55.00;40.50;24.50
78512;PMS5003;67809;55.034;73.462;2024-02-21T06:56:14;48.50;35.75;22.75
78512;PMS5003;67809;55.034;73.462;2024-02-21T06:58:41;51.75;39.00;24.00
78512;PMS5003;67809;55.034;73.462;2024-02-21T07:01:07;46.25;33.50;20.50
78512;PMS5003;67809;55.034;73.462;2024-02-21T07:03:33;50.00;36.25;22.00
78512;PMS5003;67809;55.034;73.462;2024-02-21T07:06:00;52.25;37.00;22.75
78512;PMS5003;67809;55.034;73.462;2024-02-21T07:08:26;50.50;36.00;22.00
78512;PMS5003;67809;55.034;73.462;2024-02-21T07:10:53;45.50;34.50;22.00
78512;PMS5003;67809;55.034;73.462;2024-02-21T07:13:19;55.50;39.00;23.00
78512;PMS5003;67809;55.034;73.462;2024-02-21T07:15:46;48.00;35.25;20.25
78512;PMS5003;67809;55.034;73.462;2024-02-21T07:18:12;45.25;33.25;19.75
78512;PMS5003;67809;55.034;73.462;2024-02-21T07:20:38;51.75;38.00;22.75
78512;PMS5003;67809;55.034;73.462;2024-02-21T07:23:10;42.25;32.00;20.00
78512;PMS5003;67809;55.034;73.462;2024-02-21T07:25:36;43.33;33.67;21.00
78512;PMS5003;67809;55.034;73.462;2024-02-21T07:28:02;54.00;38.50;24.00
78512;PMS5003;67809;55.034;73.462;2024-02-21T07:30:29;50.50;36.75;21.75
78512;PMS5003;67809;55.034;73.462;2024-02-21T07:32:55;52.50;39.50;23.50
78512;PMS5003;67809;55.034;73.462;2024-02-21T07:35:21;55.33;40.67;24.00
78512;PMS5003;67809;55.034;73.462;2024-02-21T07:37:48;51.50;38.50;23.00
78512;PMS5003;67809;55.034;73.462;2024-02-21T07:40:14;58.00;41.50;25.00
78512;PMS5003;67809;55.034;73.462;2024-02-21T07:42:41;48.25;37.00;23.00
78512;PMS5003;67809;55.034;73.462;2024-02-21T07:45:07;54.50;39.00;25.00
78512;PMS5003;67809;55.034;73.462;2024-02-21T07:47:34;54.50;38.00;24.00
78512;PMS5003;67809;55.034;73.462;2024-02-21T07:50:02;46.75;34.25;22.25
78512;PMS5003;67809;55.034;73.462;2024-02-21T07:52:28;49.50;36.50;22.25
78512;PMS5003;67809;55.034;73.462;2024-02-21T07:54:54;52.00;37.67;23.00
78512;PMS5003;67809;55.034;73.462;2024-02-21T07:57:21;49.25;37.50;23.75
78512;PMS5003;67809;55.034;73.462;2024-02-21T07:59:47;52.75;39.00;23.75
78512;PMS5003;67809;55.034;73.462;2024-02-21T08:02:14;59.25;41.50;25.50
78512;PMS5003;67809;55.034;73.462;2024-02-21T08:04:40;56.67;40.33;24.33
78512;PMS5003;67809;55.034;73.462;2024-02-21T08:07:06;46.25;35.25;23.00
78512;PMS5003;67809;55.034;73.462;2024-02-21T08:09:33;53.50;40.00;23.25
78512;PMS5003;67809;55.034;73.462;2024-02-21T08:11:59;55.75;41.00;26.00
78512;PMS5003;67809;55.034;73.462;2024-02-21T08:14:25;51.33;38.33;24.00
78512;PMS5003;67809;55.034;73.462;2024-02-21T08:16:51;54.00;40.00;24.75
78512;PMS5003;67809;55.034;73.462;2024-02-21T08:19:22;71.00;52.00;31.75
78512;PMS5003;67809;55.034;73.462;2024-02-21T08:21:51;53.50;39.00;24.25
78512;PMS5003;67809;55.034;73.462;2024-02-21T08:24:17;59.33;42.33;26.33
78512;PMS5003;67809;55.034;73.462;2024-02-21T08:26:43;55.25;41.00;25.75
78512;PMS5003;67809;55.034;73.462;2024-02-21T08:29:13;55.00;39.50;25.00
78512;PMS5003;67809;55.034;73.462;2024-02-21T08:31:39;53.00;41.75;26.00
78512;PMS5003;67809;55.034;73.462;2024-02-21T08:36:32;56.00;41.75;26.00
78512;PMS5003;67809;55.034;73.462;2024-02-21T08:38:58;58.50;41.00;26.75
78512;PMS5003;67809;55.034;73.462;2024-02-21T08:41:25;53.75;39.50;26.00
78512;PMS5003;67809;55.034;73.462;2024-02-21T08:43:52;56.00;41.50;26.00
78512;PMS5003;67809;55.034;73.462;2024-02-21T08:46:19;54.25;40.75;26.00
78512;PMS5003;67809;55.034;73.462;2024-02-21T08:48:46;57.50;43.00;27.00
78512;PMS5003;67809;55.034;73.462;2024-02-21T08:51:13;56.25;41.00;25.75
78512;PMS5003;67809;55.034;73.462;2024-02-21T08:53:40;54.00;40.00;25.50
78512;PMS5003;67809;55.034;73.462;2024-02-21T08:56:06;48.50;37.50;24.00
78512;PMS5003;67809;55.034;73.462;2024-02-21T08:58:34;53.00;38.75;25.00
78512;PMS5003;67809;55.034;73.462;2024-02-21T09:01:01;51.75;37.25;23.50
78512;PMS5003;67809;55.034;73.462;2024-02-21T09:03:32;43.25;34.50;22.75
78512;PMS5003;67809;55.034;73.462;2024-02-21T09:06:02;53.25;41.00;26.50
78512;PMS5003;67809;55.034;73.462;2024-02-21T09:08:28;53.00;39.00;25.00
78512;PMS5003;67809;55.034;73.462;2024-02-21T09:10:55;53.00;39.00;24.00
78512;PMS5003;67809;55.034;73.462;2024-02-21T09:13:21;54.25;40.00;25.00
78512;PMS5003;67809;55.034;73.462;2024-02-21T09:15:48;52.00;39.00;25.00
78512;PMS5003;67809;55.034;73.462;2024-02-21T09:18:15;57.50;41.50;26.25
78512;PMS5003;67809;55.034;73.462;2024-02-21T09:20:42;60.25;43.75;26.00
78512;PMS5003;67809;55.034;73.462;2024-02-21T09:23:08;55.00;42.00;26.00
78512;PMS5003;67809;55.034;73.462;2024-02-21T09:25:34;56.00;42.00;26.00
78512;PMS5003;67809;55.034;73.462;2024-02-21T09:28:01;69.50;50.50;30.75
78512;PMS5003;67809;55.034;73.462;2024-02-21T09:30:28;59.00;43.25;26.50
78512;PMS5003;67809;55.034;73.462;2024-02-21T09:32:54;54.25;41.50;26.00
78512;PMS5003;67809;55.034;73.462;2024-02-21T09:35:21;51.00;38.00;24.00
78512;PMS5003;67809;55.034;73.462;2024-02-21T09:37:52;53.00;39.00;24.00
78512;PMS5003;67809;55.034;73.462;2024-02-21T09:40:18;54.00;38.25;24.00
78512;PMS5003;67809;55.034;73.462;2024-02-21T09:42:46;51.25;37.75;24.00
78512;PMS5003;67809;55.034;73.462;2024-02-21T09:45:23;50.50;38.00;22.00
78512;PMS5003;67809;55.034;73.462;2024-02-21T09:50:34;56.25;41.00;25.00
78512;PMS5003;67809;55.034;73.462;2024-02-21T09:53:03;55.00;41.00;26.00
78512;PMS5003;67809;55.034;73.462;2024-02-21T09:55:31;58.67;42.00;25.33
78512;PMS5003;67809;55.034;73.462;2024-02-21T09:58:03;55.75;41.50;26.00
78512;PMS5003;67809;55.034;73.462;2024-02-21T10:00:30;53.00;40.25;25.00
78512;PMS5003;67809;55.034;73.462;2024-02-21T10:02:56;51.50;40.00;26.25
78512;PMS5003;67809;55.034;73.462;2024-02-21T10:05:24;56.00;42.33;26.33
78512;PMS5003;67809;55.034;73.462;2024-02-21T10:07:51;57.50;44.00;28.00
78512;PMS5003;67809;55.034;73.462;2024-02-21T10:10:18;62.00;46.50;28.25
78512;PMS5003;67809;55.034;73.462;2024-02-21T10:12:47;66.00;49.00;31.00
78512;PMS5003;67809;55.034;73.462;2024-02-21T10:15:14;63.25;45.50;28.00
78512;PMS5003;67809;55.034;73.462;2024-02-21T10:17:45;60.00;43.75;27.25
78512;PMS5003;67809;55.034;73.462;2024-02-21T10:20:11;56.00;43.00;26.00
78512;PMS5003;67809;55.034;73.462;2024-02-21T10:22:38;59.75;42.00;27.00
78512;PMS5003;67809;55.034;73.462;2024-02-21T10:25:08;58.50;43.00;26.50
78512;PMS5003;67809;55.034;73.462;2024-02-21T10:27:37;52.00;39.50;26.00
78512;PMS5003;67809;55.034;73.462;2024-02-21T10:30:04;55.50;41.00;25.25
78512;PMS5003;67809;55.034;73.462;2024-02-21T10:32:31;60.00;44.00;26.75
78512;PMS5003;67809;55.034;73.462;2024-02-21T10:35:01;58.00;42.75;26.50
78512;PMS5003;67809;55.034;73.462;2024-02-21T10:37:27;55.00;41.00;26.00
78512;PMS5003;67809;55.034;73.462;2024-02-21T10:39:54;52.25;38.75;24.00
78512;PMS5003;67809;55.034;73.462;2024-02-21T10:42:21;48.00;37.00;24.00
78512;PMS5003;67809;55.034;73.462;2024-02-21T10:44:49;51.25;38.00;25.00
78512;PMS5003;67809;55.034;73.462;2024-02-21T10:47:17;63.00;47.25;29.25
78512;PMS5003;67809;55.034;73.462;2024-02-21T10:49:49;57.00;43.50;27.25
78512;PMS5003;67809;55.034;73.462;2024-02-21T10:55:09;66.75;49.50;30.00
78512;PMS5003;67809;55.034;73.462;2024-02-21T10:57:38;58.75;42.50;25.75
78512;PMS5003;67809;55.034;73.462;2024-02-21T11:00:05;56.25;43.00;26.00
78512;PMS5003;67809;55.034;73.462;2024-02-21T11:02:33;44.00;34.00;21.00
78512;PMS5003;67809;55.034;73.462;2024-02-21T11:05:01;48.25;37.00;24.00
78512;PMS5003;67809;55.034;73.462;2024-02-21T11:07:42;46.67;35.00;22.00
78512;PMS5003;67809;55.034;73.462;2024-02-21T11:10:20;48.50;35.75;21.75
78512;PMS5003;67809;55.034;73.462;2024-02-21T11:12:47;43.75;34.75;22.00
78512;PMS5003;67809;55.034;73.462;2024-02-21T11:15:14;41.50;32.75;21.00
78512;PMS5003;67809;55.034;73.462;2024-02-21T11:17:40;45.00;34.00;21.00
78512;PMS5003;67809;55.034;73.462;2024-02-21T11:20:13;43.75;34.00;21.50
78512;PMS5003;67809;55.034;73.462;2024-02-21T11:22:43;45.00;34.00;22.25
78512;PMS5003;67809;55.034;73.462;2024-02-21T11:25:09;49.00;36.25;22.00
78512;PMS5003;67809;55.034;73.462;2024-02-21T11:27:38;55.00;40.00;24.00
78512;PMS5003;67809;55.034;73.462;2024-02-21T11:30:05;52.75;38.25;23.00
78512;PMS5003;67809;55.034;73.462;2024-02-21T11:32:31;51.50;38.00;24.00
78512;PMS5003;67809;55.034;73.462;2024-02-21T11:34:58;47.00;36.25;22.75
78512;PMS5003;67809;55.034;73.462;2024-02-21T11:37:33;50.33;38.00;24.00
78512;PMS5003;67809;55.034;73.462;2024-02-21T11:39:59;50.25;39.00;25.00
78512;PMS5003;67809;55.034;73.462;2024-02-21T11:42:26;53.00;38.75;25.00
78512;PMS5003;67809;55.034;73.462;2024-02-21T11:44:53;53.00;40.00;25.00
78512;PMS5003;67809;55.034;73.462;2024-02-21T11:47:22;49.25;38.00;24.25
78512;PMS5003;67809;55.034;73.462;2024-02-21T11:49:49;59.00;42.00;26.00
78512;PMS5003;67809;55.034;73.462;2024-02-21T11:52:25;60.75;45.00;27.50
78512;PMS5003;67809;55.034;73.462;2024-02-21T11:54:52;50.25;38.00;23.75
78512;PMS5003;67809;55.034;73.462;2024-02-21T11:57:20;45.67;35.67;22.67
78512;PMS5003;67809;55.034;73.462;2024-02-21T11:59:46;60.75;45.00;28.00
78512;PMS5003;67809;55.034;73.462;2024-02-21T12:02:13;49.00;37.00;22.50
78512;PMS5003;67809;55.034;73.462;2024-02-21T12:04:40;47.50;35.50;22.50
78512;PMS5003;67809;55.034;73.462;2024-02-21T12:07:24;54.33;39.33;25.00
78512;PMS5003;67809;55.034;73.462;2024-02-21T12:09:51;50.50;37.75;24.00
78512;PMS5003;67809;55.034;73.462;2024-02-21T12:12:19;51.00;36.75;23.00
78512;PMS5003;67809;55.034;73.462;2024-02-21T12:14:45;47.50;35.25;22.25
78512;PMS5003;67809;55.034;73.462;2024-02-21T12:17:12;125.67;104.00;70.00
78512;PMS5003;67809;55.034;73.462;2024-02-21T12:19:38;287.00;216.25;133.25
78512;PMS5003;67809;55.034;73.462;2024-02-21T12:22:04;289.25;216.50;126.75
78512;PMS5003;67809;55.034;73.462;2024-02-21T12:24:34;180.00;138.50;81.00
78512;PMS5003;67809;55.034;73.462;2024-02-21T12:27:01;140.00;108.00;66.67
78512;PMS5003;67809;55.034;73.462;2024-02-21T12:29:29;78.50;59.75;38.50
78512;PMS5003;67809;55.034;73.462;2024-02-21T12:31:56;64.50;49.00;32.00
78512;PMS5003;67809;55.034;73.462;2024-02-21T12:34:23;64.75;46.00;29.00
78512;PMS5003;67809;55.034;73.462;2024-02-21T12:36:50;49.33;35.00;22.00
78512;PMS5003;67809;55.034;73.462;2024-02-21T12:39:31;55.75;41.00;25.75
78512;PMS5003;67809;55.034;73.462;2024-02-21T12:41:57;40.50;31.00;19.75
78512;PMS5003;67809;55.034;73.462;2024-02-21T12:44:24;46.75;34.50;21.00
78512;PMS5003;67809;55.034;73.462;2024-02-21T12:46:50;53.33;40.00;25.00
78512;PMS5003;67809;55.034;73.462;2024-02-21T12:49:19;41.75;32.25;21.00
78512;PMS5003;67809;55.034;73.462;2024-02-21T12:51:46;57.00;42.00;26.00
78512;PMS5003;67809;55.034;73.462;2024-02-21T12:54:15;46.50;35.75;22.75
78512;PMS5003;67809;55.034;73.462;2024-02-21T12:56:41;47.67;35.00;22.33
78512;PMS5003;67809;55.034;73.462;2024-02-21T12:59:07;42.00;32.50;19.00
78512;PMS5003;67809;55.034;73.462;2024-02-21T13:01:36;37.50;28.25;18.00
78512;PMS5003;67809;55.034;73.462;2024-02-21T13:04:03;44.50;32.50;19.00
78512;PMS5003;67809;55.034;73.462;2024-02-21T13:06:29;37.00;28.00;17.00
78512;PMS5003;67809;55.034;73.462;2024-02-21T13:08:56;43.50;32.50;19.75
78512;PMS5003;67809;55.034;73.462;2024-02-21T13:11:22;39.00;28.25;19.00
78512;PMS5003;67809;55.034;73.462;2024-02-21T13:13:48;42.75;32.00;20.00
78512;PMS5003;67809;55.034;73.462;2024-02-21T13:16:14;44.00;31.75;19.75
78512;PMS5003;67809;55.034;73.462;2024-02-21T13:19:00;42.33;31.00;19.00
78512;PMS5003;67809;55.034;73.462;2024-02-21T13:21:26;40.75;31.00;19.00
78512;PMS5003;67809;55.034;73.462;2024-02-21T13:23:52;41.00;30.00;18.00
78512;PMS5003;67809;55.034;73.462;2024-02-21T13:26:18;28.25;23.00;15.50
78512;PMS5003;67809;55.034;73.462;2024-02-21T13:28:46;31.00;23.67;14.33
78512;PMS5003;67809;55.034;73.462;2024-02-21T13:31:33;36.75;28.00;17.75
78512;PMS5003;67809;55.034;73.462;2024-02-21T13:34:00;38.25;28.25;17.25
78512;PMS5003;67809;55.034;73.462;2024-02-21T13:36:26;39.00;30.25;18.50
78512;PMS5003;67809;55.034;73.462;2024-02-21T13:38:52;46.00;32.33;20.67
78512;PMS5003;67809;55.034;73.462;2024-02-21T13:41:19;49.00;36.25;22.25
78512;PMS5003;67809;55.034;73.462;2024-02-21T13:43:47;58.75;43.00;26.00
78512;PMS5003;67809;55.034;73.462;2024-02-21T13:46:14;53.25;38.50;23.75